createdAt,value
2023-05-26T00:01:43.823Z,16.85
2023-05-26T00:03:36.927Z,23.23
2023-05-26T00:05:28.112Z,24.30
2023-05-26T00:07:19.493Z,27.05
2023-05-26T00:09:10.734Z,33.70
2023-05-26T00:11:01.685Z,27.40
2023-05-26T00:12:52.928Z,21.40
2023-05-26T00:14:44.860Z,24.13
2023-05-26T00:16:36.063Z,23.65
2023-05-26T00:18:27.359Z,25.65
2023-05-26T00:20:18.700Z,28.38
2023-05-26T00:22:11.220Z,24.30
2023-05-26T00:24:02.218Z,19.98
2023-05-26T00:25:54.220Z,23.52
2023-05-26T00:27:45.455Z,26.17
2023-05-26T00:29:36.462Z,21.80
2023-05-26T00:31:27.975Z,23.40
2023-05-26T00:33:19.087Z,30.60
2023-05-26T00:35:11.515Z,29.02
2023-05-26T00:37:03.484Z,24.58
2023-05-26T00:38:54.453Z,23.40
2023-05-26T00:40:45.890Z,21.15
2023-05-26T00:42:36.866Z,25.77
2023-05-26T00:44:28.480Z,26.67
2023-05-26T00:46:19.702Z,30.20
2023-05-26T00:48:11.224Z,23.95
2023-05-26T00:50:02.676Z,26.42
2023-05-26T00:51:54.251Z,24.45
2023-05-26T00:53:46.788Z,32.35
2023-05-26T00:55:37.886Z,22.52
2023-05-26T00:57:30.982Z,20.42
2023-05-26T00:59:22.872Z,26.80
2023-05-26T01:01:14.851Z,19.17
2023-05-26T01:03:17.749Z,14.45
2023-05-26T01:05:10.305Z,26.30
2023-05-26T01:07:01.406Z,22.85
2023-05-26T01:08:53.259Z,24.15
2023-05-26T01:10:45.073Z,24.17
2023-05-26T01:12:54.314Z,23.48
2023-05-26T01:15:00.151Z,28.60
2023-05-26T01:17:19.196Z,22.63
2023-05-26T01:19:36.509Z,21.98
2023-05-26T01:21:29.450Z,21.33
2023-05-26T01:23:48.569Z,28.33
2023-05-26T01:26:09.228Z,22.85
2023-05-26T01:28:10.555Z,18.80
2023-05-26T01:30:02.210Z,25.80
2023-05-26T01:31:54.668Z,27.48
2023-05-26T01:33:46.080Z,21.77
2023-05-26T01:35:37.042Z,24.15
2023-05-26T01:37:27.943Z,22.00
2023-05-26T01:39:18.538Z,24.27
2023-05-26T01:41:52.228Z,25.33
2023-05-26T01:44:10.572Z,19.13
2023-05-26T01:46:35.996Z,21.60
2023-05-26T01:48:29.911Z,22.52
2023-05-26T01:50:33.508Z,25.63
2023-05-26T01:52:25.570Z,22.77
2023-05-26T01:54:22.218Z,20.77
2023-05-26T01:56:14.942Z,24.10
2023-05-26T01:58:09.958Z,21.55
2023-05-26T02:00:01.006Z,20.92
2023-05-26T02:01:52.464Z,24.65
2023-05-26T02:03:43.598Z,24.77
2023-05-26T02:05:34.935Z,23.42
2023-05-26T02:07:25.859Z,22.20
2023-05-26T02:09:16.503Z,20.48
2023-05-26T02:11:07.826Z,23.50
2023-05-26T02:12:58.751Z,21.73
2023-05-26T02:14:50.779Z,22.77
2023-05-26T02:16:41.937Z,25.25
2023-05-26T02:18:39.446Z,24.98
2023-05-26T02:20:30.663Z,27.17
2023-05-26T02:22:22.813Z,29.23
2023-05-26T02:24:13.816Z,21.75
2023-05-26T02:26:15.542Z,29.08
2023-05-26T02:28:12.458Z,21.08
2023-05-26T02:30:03.647Z,22.38
2023-05-26T02:31:54.517Z,23.80
2023-05-26T02:33:45.748Z,23.73
2023-05-26T02:35:37.152Z,24.85
2023-05-26T02:37:28.373Z,19.10
2023-05-26T02:39:21.445Z,21.88
2023-05-26T02:41:12.731Z,21.67
2023-05-26T02:43:03.643Z,19.92
2023-05-26T02:44:54.828Z,21.38
2023-05-26T02:46:45.504Z,22.83
2023-05-26T02:48:36.563Z,25.60
2023-05-26T02:50:27.538Z,25.35
2023-05-26T02:52:18.696Z,33.35
2023-05-26T02:54:09.691Z,18.90
2023-05-26T02:56:01.278Z,27.85
2023-05-26T02:57:52.983Z,21.45
2023-05-26T02:59:44.126Z,31.45
2023-05-26T03:01:35.664Z,23.90
2023-05-26T03:03:27.109Z,24.50
2023-05-26T03:05:18.664Z,25.70
2023-05-26T03:07:09.750Z,24.55
2023-05-26T03:09:01.202Z,24.63
2023-05-26T03:11:10.668Z,24.70
2023-05-26T03:13:02.102Z,27.33
2023-05-26T03:14:53.183Z,26.70
2023-05-26T03:16:44.282Z,28.40
2023-05-26T03:18:35.597Z,26.63
2023-05-26T03:20:26.705Z,16.13
2023-05-26T03:22:39.305Z,22.17
2023-05-26T03:24:28.968Z,25.75
2023-05-26T03:26:20.054Z,28.77
2023-05-26T03:28:11.369Z,28.52
2023-05-26T03:30:06.280Z,28.42
2023-05-26T03:31:58.213Z,25.73
2023-05-26T03:33:49.183Z,25.10
2023-05-26T03:35:40.091Z,25.25
2023-05-26T03:37:31.286Z,21.85
2023-05-26T03:39:23.913Z,22.77
2023-05-26T03:41:15.883Z,26.25
2023-05-26T03:43:06.928Z,25.42
2023-05-26T03:44:58.122Z,26.30
2023-05-26T03:46:49.431Z,24.08
2023-05-26T03:48:40.338Z,22.77
2023-05-26T03:50:31.990Z,24.70
2023-05-26T03:52:23.045Z,30.38
2023-05-26T03:54:14.380Z,25.05
2023-05-26T03:56:05.698Z,25.27
2023-05-26T03:57:57.126Z,26.45
2023-05-26T03:59:48.276Z,23.35
2023-05-26T04:01:39.199Z,24.77
2023-05-26T04:03:30.125Z,23.63
2023-05-26T04:05:23.855Z,20.55
2023-05-26T04:07:14.908Z,26.20
2023-05-26T04:09:10.302Z,26.05
2023-05-26T04:11:01.589Z,21.45
2023-05-26T04:12:52.490Z,25.80
2023-05-26T04:14:43.910Z,24.15
2023-05-26T04:16:35.151Z,28.33
2023-05-26T04:18:25.881Z,25.27
2023-05-26T04:20:18.129Z,20.75
2023-05-26T04:22:12.525Z,25.02
2023-05-26T04:24:04.006Z,26.65
2023-05-26T04:25:54.923Z,29.48
2023-05-26T04:27:46.037Z,27.15
2023-05-26T04:29:36.901Z,21.63
2023-05-26T04:31:29.283Z,21.27
2023-05-26T04:33:20.597Z,25.35
2023-05-26T04:35:11.680Z,23.10
2023-05-26T04:37:03.591Z,20.40
2023-05-26T04:38:54.596Z,23.90
2023-05-26T04:40:45.589Z,23.85
2023-05-26T04:42:39.470Z,24.52
2023-05-26T04:44:34.035Z,21.10
2023-05-26T04:46:25.565Z,27.05
2023-05-26T04:48:16.621Z,20.35
2023-05-26T04:50:08.179Z,23.02
2023-05-26T04:52:01.334Z,20.98
2023-05-26T04:53:53.105Z,31.60
2023-05-26T04:55:44.701Z,20.90
2023-05-26T04:57:36.691Z,22.90
2023-05-26T04:59:27.757Z,21.65
2023-05-26T05:01:21.776Z,22.42
2023-05-26T05:03:12.724Z,25.60
2023-05-26T05:05:05.118Z,32.22
2023-05-26T05:06:56.619Z,22.45
2023-05-26T05:08:47.369Z,16.30
2023-05-26T05:10:39.001Z,20.70
2023-05-26T05:12:30.161Z,17.27
2023-05-26T05:14:22.842Z,18.05
2023-05-26T05:16:17.270Z,17.13
2023-05-26T05:18:09.700Z,19.50
2023-05-26T05:20:14.416Z,18.60
2023-05-26T05:22:06.680Z,17.98
2023-05-26T05:23:57.465Z,17.15
2023-05-26T05:25:48.470Z,29.02
2023-05-26T05:27:39.753Z,22.17
2023-05-26T05:29:33.740Z,19.08
2023-05-26T05:31:24.811Z,16.67
2023-05-26T05:33:16.385Z,16.55
2023-05-26T05:35:11.480Z,17.17
2023-05-26T05:37:02.264Z,14.40
2023-05-26T05:38:53.471Z,18.02
2023-05-26T05:40:44.679Z,16.50
2023-05-26T05:42:35.696Z,15.48
2023-05-26T05:44:27.160Z,18.73
2023-05-26T05:46:18.010Z,17.40
2023-05-26T05:48:09.677Z,16.92
2023-05-26T05:50:00.924Z,19.90
2023-05-26T05:51:51.836Z,18.23
2023-05-26T05:53:43.199Z,12.43
2023-05-26T05:55:34.080Z,17.35
2023-05-26T05:57:25.354Z,19.15
2023-05-26T05:59:15.912Z,16.23
2023-05-26T06:01:08.051Z,14.38
2023-05-26T06:02:59.439Z,12.70
2023-05-26T06:04:50.614Z,20.15
2023-05-26T06:06:41.720Z,14.13
2023-05-26T06:08:33.107Z,18.02
2023-05-26T06:10:24.091Z,13.75
2023-05-26T06:12:15.831Z,19.42
2023-05-26T06:14:07.312Z,17.60
2023-05-26T06:15:58.069Z,16.73
2023-05-26T06:17:49.366Z,17.02
2023-05-26T06:19:40.725Z,15.73
2023-05-26T06:21:31.947Z,17.42
2023-05-26T06:23:23.098Z,14.27
2023-05-26T06:25:14.697Z,16.77
2023-05-26T06:27:05.857Z,21.08
2023-05-26T06:28:57.357Z,15.13
2023-05-26T06:30:48.259Z,16.27
2023-05-26T06:32:39.114Z,14.13
2023-05-26T06:34:29.948Z,13.32
2023-05-26T06:36:21.025Z,14.40
2023-05-26T06:38:14.591Z,18.20
2023-05-26T06:40:15.346Z,14.80
2023-05-26T06:42:09.476Z,14.60
2023-05-26T06:44:00.293Z,19.27
2023-05-26T06:45:51.374Z,13.13
2023-05-26T06:47:42.603Z,18.77
2023-05-26T06:49:33.566Z,11.02
2023-05-26T06:51:25.020Z,14.48
2023-05-26T06:53:19.425Z,14.25
2023-05-26T06:55:10.536Z,16.60
2023-05-26T06:57:01.520Z,22.50
2023-05-26T06:58:52.438Z,21.15
2023-05-26T07:01:07.351Z,14.07
2023-05-26T07:02:58.838Z,16.52
2023-05-26T07:04:52.323Z,14.30
2023-05-26T07:06:47.644Z,15.90
2023-05-26T07:08:43.292Z,17.30
2023-05-26T07:10:34.769Z,15.77
2023-05-26T07:12:25.694Z,13.10
2023-05-26T07:14:20.494Z,14.18
2023-05-26T07:16:11.026Z,12.82
2023-05-26T07:18:02.046Z,16.38
2023-05-26T07:19:53.001Z,14.15
2023-05-26T07:21:43.891Z,15.55
2023-05-26T07:23:34.928Z,12.02
2023-05-26T07:25:26.513Z,12.93
2023-05-26T07:27:18.216Z,15.23
2023-05-26T07:29:09.313Z,16.83
2023-05-26T07:31:00.467Z,16.50
2023-05-26T07:32:51.407Z,17.98
2023-05-26T07:34:42.165Z,17.95
2023-05-26T07:36:33.424Z,22.15
2023-05-26T07:38:24.123Z,17.17
2023-05-26T07:40:18.224Z,20.38
2023-05-26T07:42:10.730Z,20.95
2023-05-26T07:44:01.480Z,14.27
2023-05-26T07:45:53.446Z,18.90
2023-05-26T07:47:45.170Z,16.50
2023-05-26T07:49:36.279Z,18.77
2023-05-26T07:51:28.143Z,15.63
2023-05-26T07:53:20.947Z,21.88
2023-05-26T07:55:11.973Z,29.02
2023-05-26T07:57:02.895Z,20.50
2023-05-26T07:58:54.188Z,16.63
2023-05-26T08:00:45.174Z,16.98
2023-05-26T08:02:36.339Z,16.02
2023-05-26T08:04:30.192Z,16.60
2023-05-26T08:06:26.944Z,17.10
2023-05-26T08:08:19.024Z,20.55
2023-05-26T08:10:10.971Z,22.88
2023-05-26T08:12:03.497Z,16.10
2023-05-26T08:13:55.235Z,14.70
2023-05-26T08:15:46.649Z,20.33
2023-05-26T08:17:38.541Z,14.98
2023-05-26T08:19:30.239Z,20.17
2023-05-26T08:21:21.615Z,16.65
2023-05-26T08:23:12.717Z,12.35
2023-05-26T08:25:05.096Z,13.77
2023-05-26T08:26:57.924Z,17.42
2023-05-26T08:28:49.089Z,12.20
2023-05-26T08:30:42.493Z,11.50
2023-05-26T08:32:34.134Z,12.63
2023-05-26T08:34:25.343Z,13.00
2023-05-26T08:36:16.686Z,12.75
2023-05-26T08:38:09.409Z,13.93
2023-05-26T08:40:00.987Z,10.18
2023-05-26T08:42:07.387Z,13.07
2023-05-26T08:44:07.536Z,10.55
2023-05-26T08:46:03.412Z,11.63
2023-05-26T08:48:01.176Z,10.80
2023-05-26T08:50:07.342Z,13.10
2023-05-26T08:52:15.065Z,12.30
2023-05-26T08:54:07.268Z,21.08
2023-05-26T08:56:01.446Z,12.93
2023-05-26T08:57:54.685Z,17.90
2023-05-26T08:59:48.770Z,16.40
2023-05-26T09:01:39.805Z,13.38
2023-05-26T09:03:32.712Z,12.35
2023-05-26T09:05:24.366Z,12.70
2023-05-26T09:09:09.923Z,9.88
2023-05-26T09:11:28.892Z,11.60
2023-05-26T09:13:20.081Z,13.30
2023-05-26T09:15:11.163Z,10.35
2023-05-26T09:17:03.403Z,17.20
2023-05-26T09:19:01.639Z,13.77
2023-05-26T09:20:52.771Z,10.40
2023-05-26T09:22:46.001Z,9.55
2023-05-26T09:24:51.358Z,14.30
2023-05-26T09:26:42.385Z,7.10
2023-05-26T09:28:34.084Z,13.45
2023-05-26T09:30:31.689Z,8.23
2023-05-26T09:32:33.497Z,14.68
2023-05-26T09:34:24.632Z,11.70
2023-05-26T09:36:24.703Z,11.38
2023-05-26T09:38:20.771Z,12.80
2023-05-26T09:40:13.822Z,13.25
2023-05-26T09:42:08.806Z,8.25
2023-05-26T09:44:18.740Z,12.27
2023-05-26T09:46:26.880Z,6.75
2023-05-26T09:48:18.584Z,11.77
2023-05-26T09:50:10.093Z,8.13
2023-05-26T09:52:13.241Z,9.88
2023-05-26T09:54:11.982Z,16.75
2023-05-26T09:56:03.585Z,13.00
2023-05-26T09:57:58.512Z,5.00
2023-05-26T09:59:55.461Z,10.05
2023-05-26T10:01:48.265Z,12.60
2023-05-26T10:03:39.518Z,11.68
2023-05-26T10:05:33.910Z,8.70
2023-05-26T10:07:27.451Z,12.95
2023-05-26T10:09:23.940Z,10.45
2023-05-26T10:11:15.731Z,12.65
2023-05-26T10:13:10.825Z,6.47
2023-05-26T10:15:07.063Z,10.68
2023-05-26T10:17:00.103Z,15.40
2023-05-26T10:18:51.595Z,6.25
2023-05-26T10:20:50.771Z,13.80
2023-05-26T10:23:33.172Z,10.00
2023-05-26T10:25:51.874Z,8.73
2023-05-26T10:28:09.786Z,8.77
2023-05-26T10:30:29.355Z,9.45
2023-05-26T10:32:53.081Z,9.80
2023-05-26T10:34:44.617Z,7.43
2023-05-26T10:36:36.006Z,13.00
2023-05-26T10:38:38.467Z,8.35
2023-05-26T10:40:31.879Z,7.10
2023-05-26T10:42:25.655Z,8.88
2023-05-26T10:44:51.289Z,6.53
2023-05-26T10:47:04.174Z,9.38
2023-05-26T10:49:00.056Z,10.27
2023-05-26T10:50:56.791Z,8.90
2023-05-26T10:52:53.073Z,10.40
2023-05-26T10:54:44.906Z,9.18
2023-05-26T10:56:43.908Z,12.35
2023-05-26T10:58:56.827Z,11.85
2023-05-26T11:00:48.198Z,9.50
2023-05-26T11:02:39.501Z,8.40
2023-05-26T11:04:49.568Z,6.68
2023-05-26T11:06:59.738Z,8.27
2023-05-26T11:08:54.003Z,7.55
2023-05-26T11:11:07.456Z,13.35
2023-05-26T11:12:58.853Z,7.05
2023-05-26T11:14:50.631Z,9.27
2023-05-26T11:16:45.581Z,7.50
2023-05-26T11:18:36.742Z,13.15
2023-05-26T11:20:28.538Z,8.73
2023-05-26T11:22:21.074Z,13.75
2023-05-26T11:24:13.264Z,5.72
2023-05-26T11:26:17.241Z,7.40
2023-05-26T11:28:16.374Z,7.53
2023-05-26T11:30:13.224Z,10.82
2023-05-26T11:32:05.101Z,9.93
2023-05-26T11:33:58.511Z,9.88
2023-05-26T11:35:50.183Z,9.13
2023-05-26T11:37:41.679Z,7.90
2023-05-26T11:39:37.627Z,6.82
2023-05-26T11:41:29.970Z,11.55
2023-05-26T11:43:25.351Z,10.27
2023-05-26T11:45:16.407Z,7.90
2023-05-26T11:47:09.656Z,5.80
2023-05-26T11:49:14.697Z,7.80
2023-05-26T11:51:15.937Z,8.00
2023-05-26T11:53:09.683Z,7.93
2023-05-26T11:55:01.057Z,7.63
2023-05-26T11:56:52.190Z,9.77
2023-05-26T11:58:56.056Z,7.72
2023-05-26T12:00:49.673Z,6.85
2023-05-26T12:02:46.103Z,6.15
2023-05-26T12:04:42.740Z,7.60
2023-05-26T12:06:48.047Z,13.65
2023-05-26T12:09:25.329Z,5.80
2023-05-26T12:11:18.221Z,7.63
2023-05-26T12:13:29.347Z,6.63
2023-05-26T12:16:02.227Z,7.68
2023-05-26T12:17:57.052Z,9.88
2023-05-26T12:19:48.383Z,7.43
2023-05-26T12:21:58.091Z,7.50
2023-05-26T12:24:08.568Z,8.60
2023-05-26T12:26:03.130Z,4.60
2023-05-26T12:28:07.698Z,5.47
2023-05-26T12:30:20.654Z,8.80
2023-05-26T12:32:15.590Z,7.18
2023-05-26T12:34:09.091Z,5.30
2023-05-26T12:36:07.295Z,8.90
2023-05-26T12:38:06.622Z,5.53
2023-05-26T12:39:59.905Z,4.55
2023-05-26T12:44:04.827Z,7.63
2023-05-26T12:46:05.160Z,4.75
2023-05-26T12:48:03.361Z,5.57
2023-05-26T12:49:58.402Z,3.83
2023-05-26T12:51:52.877Z,7.88
2023-05-26T12:53:54.499Z,7.82
2023-05-26T12:56:08.821Z,4.25
2023-05-26T12:58:04.946Z,7.07
2023-05-26T13:00:02.184Z,4.47
2023-05-26T13:01:56.196Z,7.93
2023-05-26T13:04:03.719Z,5.80
2023-05-26T13:05:57.211Z,3.35
2023-05-26T13:07:51.398Z,2.70
2023-05-26T13:10:22.228Z,4.38
2023-05-26T13:12:09.778Z,7.65
2023-05-26T13:14:00.948Z,4.55
2023-05-26T13:15:52.496Z,4.55
2023-05-26T13:17:43.453Z,6.22
2023-05-26T13:19:37.447Z,4.78
2023-05-26T13:21:28.847Z,3.20
2023-05-26T13:23:20.172Z,3.58
2023-05-26T13:25:11.052Z,6.00
2023-05-26T13:27:04.534Z,3.63
2023-05-26T13:29:14.002Z,8.07
2023-05-26T13:31:13.905Z,5.60
2023-05-26T13:33:07.117Z,3.78
2023-05-26T13:35:01.942Z,3.75
2023-05-26T13:36:52.806Z,4.10
2023-05-26T13:38:47.669Z,3.70
2023-05-26T13:40:46.993Z,4.88
2023-05-26T13:42:46.859Z,6.82
2023-05-26T13:44:47.413Z,4.25
2023-05-26T13:46:55.898Z,7.93
2023-05-26T13:48:47.169Z,5.05
2023-05-26T13:50:45.718Z,2.55
2023-05-26T13:52:40.943Z,6.32
2023-05-26T13:54:35.488Z,8.82
2023-05-26T13:56:30.344Z,4.68
2023-05-26T13:58:21.173Z,4.00
2023-05-26T14:00:13.069Z,2.72
2023-05-26T14:02:28.152Z,3.80
2023-05-26T14:04:21.402Z,4.82
2023-05-26T14:06:17.845Z,4.32
2023-05-26T14:08:25.798Z,8.05
2023-05-26T14:10:19.952Z,2.58
2023-05-26T14:12:11.576Z,4.70
2023-05-26T14:14:02.710Z,3.22
2023-05-26T14:15:58.721Z,8.38
2023-05-26T14:18:04.079Z,3.30
2023-05-26T14:20:07.390Z,4.28
2023-05-26T14:22:27.180Z,8.57
2023-05-26T14:24:27.714Z,3.67
2023-05-26T14:26:19.528Z,4.65
2023-05-26T14:28:20.388Z,3.67
2023-05-26T14:30:24.114Z,4.28
2023-05-26T14:32:55.030Z,5.47
2023-05-26T14:34:51.564Z,6.22
2023-05-26T14:36:51.227Z,3.88
2023-05-26T14:38:45.290Z,7.40
2023-05-26T14:41:06.721Z,6.05
2023-05-26T14:43:02.469Z,3.03
2023-05-26T14:45:22.738Z,2.58
2023-05-26T14:47:20.345Z,4.85
2023-05-26T14:49:14.085Z,4.07
2023-05-26T14:51:13.984Z,5.80
2023-05-26T14:53:09.389Z,3.63
2023-05-26T14:55:00.954Z,2.95
2023-05-26T14:57:02.862Z,3.05
2023-05-26T14:59:00.398Z,4.60
2023-05-26T15:00:51.730Z,9.70
2023-05-26T15:02:47.616Z,5.80
2023-05-26T15:04:38.821Z,8.55
2023-05-26T15:06:33.894Z,2.97
2023-05-26T15:08:25.805Z,5.85
2023-05-26T15:12:35.555Z,2.28
2023-05-26T15:14:27.174Z,2.50
2023-05-26T15:16:18.346Z,2.55
2023-05-26T15:18:12.925Z,3.22
2023-05-26T15:20:14.329Z,7.32
2023-05-26T15:22:06.094Z,5.35
2023-05-26T15:23:58.081Z,4.03
2023-05-26T15:25:49.405Z,3.72
2023-05-26T15:27:47.877Z,2.60
2023-05-26T15:29:55.252Z,7.93
2023-05-26T15:31:53.644Z,6.22
2023-05-26T15:36:02.357Z,5.45
2023-05-26T15:38:02.585Z,5.30
2023-05-26T15:40:00.393Z,6.25
2023-05-26T15:41:54.713Z,3.10
2023-05-26T15:43:53.918Z,2.78
2023-05-26T15:48:03.040Z,4.15
2023-05-26T15:49:55.000Z,4.78
2023-05-26T15:51:54.352Z,1.88
2023-05-26T15:53:48.773Z,3.13
2023-05-26T15:55:40.946Z,7.28
2023-05-26T15:57:32.666Z,3.75
2023-05-26T15:59:24.751Z,7.25
2023-05-26T16:01:23.187Z,3.75
2023-05-26T16:03:15.879Z,4.13
2023-05-26T16:07:27.027Z,3.78
2023-05-26T16:09:18.125Z,2.05
2023-05-26T16:11:16.588Z,3.42
2023-05-26T16:13:13.021Z,5.45
2023-05-26T16:15:05.078Z,2.50
2023-05-26T16:17:00.851Z,6.25
2023-05-26T16:18:58.418Z,4.03
2023-05-26T16:20:59.151Z,6.22
2023-05-26T16:22:52.109Z,4.93
2023-05-26T16:24:49.342Z,4.95
2023-05-26T16:26:50.895Z,3.78
2023-05-26T16:28:44.317Z,6.18
2023-05-26T16:30:35.673Z,3.47
2023-05-26T16:32:27.198Z,2.85
2023-05-26T16:34:18.409Z,9.82
2023-05-26T16:36:09.566Z,9.20
2023-05-26T16:38:00.582Z,4.93
2023-05-26T16:39:51.682Z,3.15
2023-05-26T16:41:43.075Z,5.50
2023-05-26T16:43:47.319Z,3.90
2023-05-26T16:45:38.612Z,5.10
2023-05-26T16:47:48.285Z,4.78
2023-05-26T16:49:43.855Z,3.78
2023-05-26T16:51:35.732Z,4.22
2023-05-26T16:53:27.048Z,3.33
2023-05-26T16:55:18.955Z,3.55
2023-05-26T16:57:10.012Z,2.75
2023-05-26T16:59:00.982Z,4.35
2023-05-26T17:00:52.282Z,3.15
2023-05-26T17:02:43.997Z,5.00
2023-05-26T17:04:35.783Z,3.55
2023-05-26T17:06:29.785Z,7.97
2023-05-26T17:08:21.369Z,8.75
2023-05-26T17:10:12.309Z,3.28
2023-05-26T17:12:03.563Z,7.47
2023-05-26T17:13:54.653Z,7.22
2023-05-26T17:15:46.040Z,8.60
2023-05-26T17:17:40.238Z,4.70
2023-05-26T17:19:31.266Z,8.10
2023-05-26T17:21:22.894Z,3.03
2023-05-26T17:23:13.845Z,3.75
2023-05-26T17:25:11.559Z,2.30
2023-05-26T17:27:05.850Z,6.50
2023-05-26T17:29:01.706Z,3.97
2023-05-26T17:30:59.051Z,3.92
2023-05-26T17:33:00.911Z,6.60
2023-05-26T17:34:55.071Z,3.22
2023-05-26T17:36:47.711Z,3.00
2023-05-26T17:38:41.894Z,4.18
2023-05-26T17:40:36.343Z,2.55
2023-05-26T17:42:36.076Z,6.70
2023-05-26T17:44:33.653Z,3.08
2023-05-26T17:46:26.229Z,3.47
2023-05-26T17:48:22.189Z,7.07
2023-05-26T17:50:24.983Z,4.40
2023-05-26T17:52:18.984Z,2.85
2023-05-26T17:54:11.195Z,3.40
2023-05-26T17:56:02.022Z,3.47
2023-05-26T17:57:53.131Z,3.80
2023-05-26T17:59:44.078Z,3.85
2023-05-26T18:01:35.308Z,3.05
2023-05-26T18:03:26.891Z,2.22
2023-05-26T18:05:18.175Z,3.05
2023-05-26T18:07:09.342Z,4.63
2023-05-26T18:09:00.237Z,3.92
2023-05-26T18:10:51.039Z,1.92
2023-05-26T18:12:42.054Z,7.85
2023-05-26T18:14:35.863Z,9.25
2023-05-26T18:16:28.041Z,3.58
2023-05-26T18:18:19.579Z,4.78
2023-05-26T18:20:11.742Z,4.75
2023-05-26T18:22:03.136Z,2.03
2023-05-26T18:23:54.628Z,6.63
2023-05-26T18:25:46.532Z,6.38
2023-05-26T18:27:37.859Z,2.53
2023-05-26T18:29:29.701Z,2.95
2023-05-26T18:31:21.018Z,4.75
2023-05-26T18:33:17.113Z,4.18
2023-05-26T18:35:09.682Z,6.35
2023-05-26T18:37:00.490Z,6.35
2023-05-26T18:38:52.888Z,5.55
2023-05-26T18:40:44.303Z,6.15
2023-05-26T18:42:37.354Z,3.08
2023-05-26T18:44:28.214Z,4.70
2023-05-26T18:46:19.523Z,5.57
2023-05-26T18:48:11.089Z,5.00
2023-05-26T18:50:16.977Z,4.72
2023-05-26T18:52:08.650Z,3.47
2023-05-26T18:53:59.721Z,6.65
2023-05-26T18:55:51.602Z,7.25
2023-05-26T18:57:45.761Z,5.40
2023-05-26T18:59:37.377Z,6.25
2023-05-26T19:01:28.416Z,5.25
2023-05-26T19:03:19.641Z,6.72
2023-05-26T19:05:10.688Z,2.13
2023-05-26T19:07:01.507Z,6.45
2023-05-26T19:08:52.493Z,2.80
2023-05-26T19:10:43.545Z,4.53
2023-05-26T19:12:34.792Z,4.78
2023-05-26T19:14:25.995Z,4.80
2023-05-26T19:16:17.737Z,3.95
2023-05-26T19:18:08.534Z,7.25
2023-05-26T19:20:00.109Z,5.93
2023-05-26T19:21:51.655Z,3.45
2023-05-26T19:23:42.811Z,3.72
2023-05-26T19:25:34.184Z,5.53
2023-05-26T19:27:25.361Z,2.55
2023-05-26T19:29:16.379Z,6.30
2023-05-26T19:31:15.821Z,5.00
2023-05-26T19:33:09.343Z,4.85
2023-05-26T19:35:00.481Z,3.00
2023-05-26T19:36:53.254Z,2.85
2023-05-26T19:38:46.889Z,2.78
2023-05-26T19:40:40.583Z,3.03
2023-05-26T19:42:31.748Z,5.13
2023-05-26T19:44:23.123Z,2.90
2023-05-26T19:46:14.303Z,5.35
2023-05-26T19:48:07.657Z,10.32
2023-05-26T19:49:59.970Z,8.30
2023-05-26T19:51:50.670Z,4.05
2023-05-26T19:53:42.273Z,5.22
2023-05-26T19:55:33.737Z,5.68
2023-05-26T19:57:24.499Z,5.15
2023-05-26T19:59:16.266Z,4.65
2023-05-26T20:01:14.888Z,4.72
2023-05-26T20:03:10.272Z,3.70
2023-05-26T20:05:01.376Z,7.40
2023-05-26T20:06:52.798Z,7.38
2023-05-26T20:08:43.577Z,3.35
2023-05-26T20:10:35.708Z,3.72
2023-05-26T20:12:27.387Z,4.60
2023-05-26T20:14:24.174Z,4.88
2023-05-26T20:16:15.489Z,2.88
2023-05-26T20:18:11.242Z,3.38
2023-05-26T20:21:58.557Z,5.70
2023-05-26T20:23:50.745Z,8.63
2023-05-26T20:25:42.701Z,5.60
2023-05-26T20:27:35.020Z,8.65
2023-05-26T20:29:41.537Z,5.93
2023-05-26T20:31:32.387Z,6.35
2023-05-26T20:33:30.924Z,4.80
2023-05-26T20:35:26.242Z,5.40
2023-05-26T20:37:20.561Z,4.85
2023-05-26T20:39:19.323Z,6.35
2023-05-26T20:41:11.084Z,4.68
2023-05-26T20:43:07.884Z,8.18
2023-05-26T20:45:26.692Z,8.02
2023-05-26T20:47:17.585Z,15.27
2023-05-26T20:49:12.693Z,4.28
2023-05-26T20:51:03.478Z,6.80
2023-05-26T20:52:54.761Z,4.70
2023-05-26T20:54:45.708Z,8.57
2023-05-26T20:56:41.361Z,4.95
2023-05-26T20:58:32.557Z,8.27
2023-05-26T21:00:23.563Z,4.00
2023-05-26T21:02:14.611Z,9.85
2023-05-26T21:04:08.297Z,6.45
2023-05-26T21:05:59.619Z,3.40
2023-05-26T21:07:52.340Z,4.78
2023-05-26T21:09:51.746Z,4.88
2023-05-26T21:11:48.135Z,7.97
2023-05-26T21:13:57.934Z,2.97
2023-05-26T21:15:55.637Z,8.23
2023-05-26T21:17:47.398Z,7.72
2023-05-26T21:19:42.863Z,7.80
2023-05-26T21:21:33.643Z,6.63
2023-05-26T21:23:29.316Z,11.38
2023-05-26T21:25:25.086Z,6.47
2023-05-26T21:27:16.436Z,7.25
2023-05-26T21:29:07.202Z,15.35
2023-05-26T21:30:58.633Z,8.25
2023-05-26T21:32:53.015Z,5.53
2023-05-26T21:34:44.763Z,5.00
2023-05-26T21:36:35.497Z,7.65
2023-05-26T21:38:26.804Z,5.13
2023-05-26T21:40:21.939Z,6.00
2023-05-26T21:42:16.674Z,3.55
2023-05-26T21:44:09.076Z,3.42
2023-05-26T21:46:00.817Z,5.65
2023-05-26T21:47:52.377Z,4.18
2023-05-26T21:49:46.871Z,4.13
2023-05-26T21:51:41.552Z,3.53
2023-05-26T21:53:37.102Z,9.02
2023-05-26T21:55:32.665Z,4.38
2023-05-26T21:57:25.647Z,8.35
2023-05-26T21:59:16.653Z,8.43
2023-05-26T22:01:12.247Z,4.35
2023-05-26T22:03:04.100Z,3.97
2023-05-26T22:05:00.015Z,3.58
2023-05-26T22:06:52.865Z,3.55
2023-05-26T22:08:44.892Z,6.10
2023-05-26T22:10:36.831Z,4.32
2023-05-26T22:12:28.353Z,4.35
2023-05-26T22:14:26.321Z,3.85
2023-05-26T22:16:21.921Z,6.07
2023-05-26T22:18:16.975Z,3.63
2023-05-26T22:20:08.940Z,4.10
2023-05-26T22:22:01.231Z,7.70
2023-05-26T22:23:58.197Z,5.95
2023-05-26T22:25:50.870Z,3.10
2023-05-26T22:27:47.437Z,3.47
2023-05-26T22:29:39.250Z,6.22
2023-05-26T22:31:30.390Z,7.82
2023-05-26T22:33:24.785Z,2.38
2023-05-26T22:35:17.892Z,4.68
2023-05-26T22:37:26.256Z,2.13
2023-05-26T22:39:18.566Z,5.95
2023-05-26T22:41:15.794Z,5.78
2023-05-26T22:43:18.765Z,5.05
2023-05-26T22:45:13.264Z,5.18
2023-05-26T22:47:13.218Z,3.55
2023-05-26T22:49:05.197Z,5.38
2023-05-26T22:51:01.153Z,4.70
2023-05-26T22:53:02.381Z,13.68
2023-05-26T22:54:55.727Z,3.30
2023-05-26T22:56:49.095Z,5.10
2023-05-26T22:58:41.547Z,3.10
2023-05-26T23:00:32.655Z,6.75
2023-05-26T23:02:23.881Z,5.20
2023-05-26T23:04:18.838Z,7.82
2023-05-26T23:06:13.390Z,5.68
2023-05-26T23:08:04.940Z,3.67
2023-05-26T23:10:01.278Z,5.47
2023-05-26T23:11:52.710Z,5.10
2023-05-26T23:13:43.890Z,6.20
2023-05-26T23:15:34.768Z,4.32
2023-05-26T23:17:25.701Z,7.30
2023-05-26T23:19:16.662Z,4.60
2023-05-26T23:21:10.751Z,3.90
2023-05-26T23:23:01.786Z,5.28
2023-05-26T23:24:56.761Z,11.55
2023-05-26T23:26:49.607Z,5.43
2023-05-26T23:28:40.383Z,6.50
2023-05-26T23:30:33.876Z,9.82
2023-05-26T23:32:25.739Z,3.25
2023-05-26T23:34:20.508Z,4.07
2023-05-26T23:36:21.815Z,7.38
2023-05-26T23:38:17.225Z,2.20
2023-05-26T23:40:13.465Z,9.18
2023-05-26T23:42:17.452Z,7.15
2023-05-26T23:44:11.316Z,4.55
2023-05-26T23:46:12.694Z,5.25
2023-05-26T23:48:05.362Z,3.67
2023-05-26T23:49:57.333Z,5.05
2023-05-26T23:51:48.762Z,3.38
2023-05-26T23:53:40.461Z,6.68
2023-05-26T23:55:39.198Z,14.70
2023-05-26T23:57:31.483Z,7.10
2023-05-26T23:59:24.663Z,4.47
